CheckWX is a tool to help pilots better visualize weather data.  It is not intended as a substitute for an official pre-flight weather briefing.

17:33:39 UTC

KP68 METAR
Eureka Airport
Nevada, USA
Current

41 mins ago

KP68 171653Z AUTO 23004KT 06/M08 A3037 RMK AO1 SLP284 T00561083
Observed
Nov-17 @ 16:53 UTC
Wind
  • 230° at 4 KTS
Visibility
Temperature
C / 43°F
Dewpoint
-8°C / 18°F
Humidity
36%
Altimeter
30.37" Hg
Pressure
1028.42 hPa
Previous

2 hours ago

KP68 171553Z AUTO 22005KT M01/M10 A3039 RMK AO1 SLP301 T10061100
Observed
Nov-17 @ 15:53 UTC
Wind
  • 220° at 5 KTS
Visibility
Temperature
-1°C / 30°F
Dewpoint
-10°C / 14°F
Humidity
51%
Altimeter
30.39" Hg
Pressure
1029.12 hPa
Previous

3 hours ago

KP68 171453Z AUTO 20005KT M04/M11 A3039 RMK AO1 SLP305 T10391106 51003
Observed
Nov-17 @ 14:53 UTC
Wind
  • 200° at 5 KTS
Visibility
Temperature
-4°C / 25°F
Dewpoint
-11°C / 12°F
Humidity
59%
Altimeter
30.39" Hg
Pressure
1029.12 hPa